createdAt,value
2022-09-28T00:01:18.363Z,75.56
2022-09-28T00:04:11.888Z,75.75
2022-09-28T00:07:02.918Z,75.97
2022-09-28T00:09:53.229Z,76.06
2022-09-28T00:13:22.030Z,76.15
2022-09-28T00:16:05.783Z,76.29
2022-09-28T00:18:39.406Z,76.55
2022-09-28T00:21:14.563Z,76.54
2022-09-28T00:24:05.685Z,76.25
2022-09-28T00:26:39.419Z,76.32
2022-09-28T00:29:27.815Z,76.46
2022-09-28T00:32:03.727Z,76.22
2022-09-28T00:34:39.388Z,76.54
2022-09-28T00:37:13.831Z,76.59
2022-09-28T00:42:52.553Z,77.00
2022-09-28T00:45:35.585Z,77.01
2022-09-28T00:48:09.797Z,76.94
2022-09-28T00:50:44.113Z,77.16
2022-09-28T00:53:21.664Z,77.16
2022-09-28T00:55:59.381Z,77.52
2022-09-28T00:58:38.186Z,77.55
2022-09-28T01:01:12.243Z,77.68
2022-09-28T01:03:46.930Z,77.77
2022-09-28T01:06:22.368Z,77.70
2022-09-28T01:09:03.944Z,77.99
2022-09-28T01:11:39.410Z,77.92
2022-09-28T01:14:18.435Z,77.67
2022-09-28T01:17:02.166Z,77.75
2022-09-28T01:20:04.492Z,77.94
2022-09-28T01:23:25.556Z,77.69
2022-09-28T01:26:12.333Z,77.91
2022-09-28T01:28:54.494Z,77.83
2022-09-28T01:31:35.605Z,77.60
2022-09-28T01:34:16.544Z,77.63
2022-09-28T01:36:57.494Z,77.69
2022-09-28T01:39:36.519Z,77.63
2022-09-28T01:42:19.251Z,77.67
2022-09-28T01:44:56.419Z,77.72
2022-09-28T01:47:35.109Z,77.62
2022-09-28T01:50:13.633Z,77.70
2022-09-28T01:52:56.427Z,77.63
2022-09-28T01:55:36.752Z,77.56
2022-09-28T01:58:17.875Z,77.36
2022-09-28T02:00:59.871Z,77.21
2022-09-28T02:03:42.719Z,76.88
2022-09-28T02:06:20.284Z,76.81
2022-09-28T02:08:57.797Z,76.82
2022-09-28T02:11:39.198Z,76.75
2022-09-28T02:14:15.847Z,76.65
2022-09-28T02:16:52.539Z,76.32
2022-09-28T02:19:33.110Z,76.50
2022-09-28T02:22:23.572Z,76.60
2022-09-28T02:25:05.647Z,76.57
2022-09-28T02:27:43.812Z,76.52
2022-09-28T02:30:18.291Z,76.54
2022-09-28T02:32:55.269Z,76.46
2022-09-28T02:35:29.185Z,76.51
2022-09-28T02:38:03.463Z,76.94
2022-09-28T02:40:39.387Z,77.20
2022-09-28T02:43:23.735Z,77.39
2022-09-28T02:46:08.252Z,77.20
2022-09-28T02:49:20.313Z,77.12
2022-09-28T02:52:14.520Z,76.86
2022-09-28T02:55:14.209Z,76.74
2022-09-28T02:57:57.836Z,76.32
2022-09-28T03:00:35.390Z,76.33
2022-09-28T03:03:18.870Z,76.29
2022-09-28T03:06:01.404Z,76.36
2022-09-28T03:08:43.141Z,76.33
2022-09-28T03:11:22.049Z,76.19
2022-09-28T03:13:57.889Z,76.01
2022-09-28T03:16:36.927Z,75.99
2022-09-28T03:19:11.031Z,76.20
2022-09-28T03:21:44.622Z,76.26
2022-09-28T03:24:17.912Z,76.41
2022-09-28T03:26:51.404Z,76.04
2022-09-28T03:29:25.004Z,76.34
2022-09-28T03:32:01.949Z,76.37
2022-09-28T03:34:37.845Z,76.44
2022-09-28T03:37:10.825Z,76.36
2022-09-28T03:39:46.750Z,76.42
2022-09-28T03:42:19.915Z,76.48
2022-09-28T03:44:57.332Z,76.43
2022-09-28T03:47:30.760Z,76.55
2022-09-28T03:50:04.255Z,76.62
2022-09-28T03:52:40.790Z,76.56
2022-09-28T03:55:15.529Z,76.57
2022-09-28T03:57:56.989Z,76.39
2022-09-28T04:00:30.350Z,76.16
2022-09-28T04:03:04.391Z,76.21
2022-09-28T04:05:38.265Z,76.27
2022-09-28T04:08:11.548Z,76.15
2022-09-28T04:10:46.023Z,76.27
2022-09-28T04:13:19.930Z,75.96
2022-09-28T04:15:58.964Z,75.79
2022-09-28T04:18:39.046Z,75.67
2022-09-28T04:21:38.790Z,75.54
2022-09-28T04:24:20.848Z,75.48
2022-09-28T04:27:14.336Z,75.64
2022-09-28T04:29:48.468Z,75.69
2022-09-28T04:32:23.156Z,75.58
2022-09-28T04:35:00.617Z,75.53
2022-09-28T04:37:34.115Z,75.45
2022-09-28T04:40:12.362Z,75.47
2022-09-28T04:42:45.957Z,75.43
2022-09-28T04:45:20.930Z,75.47
2022-09-28T04:47:54.899Z,75.59
2022-09-28T04:50:36.728Z,75.22
2022-09-28T04:53:20.902Z,75.16
2022-09-28T04:56:02.869Z,75.14
2022-09-28T04:58:37.958Z,75.08
2022-09-28T05:01:13.910Z,75.18
2022-09-28T05:04:10.216Z,75.08
2022-09-28T05:07:09.619Z,74.85
2022-09-28T05:09:43.815Z,74.94
2022-09-28T05:12:21.222Z,74.97
2022-09-28T05:14:54.724Z,75.05
2022-09-28T05:17:28.375Z,74.93
2022-09-28T05:20:12.517Z,74.92
2022-09-28T05:22:46.144Z,74.82
2022-09-28T05:25:20.163Z,74.36
2022-09-28T05:28:09.569Z,74.35
2022-09-28T05:31:03.773Z,74.23
2022-09-28T05:33:57.070Z,74.24
2022-09-28T05:36:30.317Z,74.19
2022-09-28T05:39:04.513Z,73.73
2022-09-28T05:41:38.568Z,73.77
2022-09-28T05:44:23.492Z,73.97
2022-09-28T05:46:58.116Z,73.95
2022-09-28T05:49:41.513Z,73.97
2022-09-28T05:52:15.434Z,74.16
2022-09-28T05:54:48.958Z,74.16
2022-09-28T05:57:22.754Z,74.14
2022-09-28T05:59:56.824Z,73.94
2022-09-28T06:02:30.749Z,73.87
2022-09-28T06:05:05.757Z,73.42
2022-09-28T06:07:49.921Z,72.88
2022-09-28T06:10:23.730Z,72.99
2022-09-28T06:13:00.842Z,73.19
2022-09-28T06:15:37.064Z,72.97
2022-09-28T06:18:12.311Z,73.06
2022-09-28T06:21:06.163Z,73.03
2022-09-28T06:23:45.633Z,73.12
2022-09-28T06:26:21.797Z,73.06
2022-09-28T06:28:55.607Z,73.29
2022-09-28T06:31:30.523Z,73.11
2022-09-28T06:34:03.912Z,73.37
2022-09-28T06:36:37.288Z,73.31
2022-09-28T06:39:11.151Z,73.22
2022-09-28T06:41:44.666Z,72.86
2022-09-28T06:44:21.373Z,72.69
2022-09-28T06:47:13.252Z,72.87
2022-09-28T06:50:12.472Z,72.86
2022-09-28T06:53:18.168Z,72.76
2022-09-28T06:56:03.705Z,72.84
2022-09-28T06:58:37.476Z,72.61
2022-09-28T07:01:12.906Z,72.53
2022-09-28T07:04:02.034Z,71.76
2022-09-28T07:07:11.498Z,71.61
2022-09-28T07:10:03.887Z,71.74
2022-09-28T07:13:18.691Z,71.13
2022-09-28T07:16:12.609Z,70.61
2022-09-28T07:18:46.220Z,70.45
2022-09-28T07:21:29.353Z,70.42
2022-09-28T07:24:07.251Z,70.34
2022-09-28T07:27:05.435Z,69.95
2022-09-28T07:29:42.297Z,70.63
2022-09-28T07:32:28.689Z,70.33
2022-09-28T07:35:25.856Z,70.22
2022-09-28T07:38:05.158Z,70.19
2022-09-28T07:40:57.145Z,69.29
2022-09-28T07:43:31.385Z,68.12
2022-09-28T07:46:09.895Z,67.87
2022-09-28T07:48:46.164Z,68.07
2022-09-28T07:51:21.597Z,68.75
2022-09-28T07:54:08.875Z,68.20
2022-09-28T07:57:08.783Z,67.20
2022-09-28T07:59:45.344Z,67.18
2022-09-28T08:02:48.620Z,67.71
2022-09-28T08:05:32.561Z,68.03
2022-09-28T08:08:06.120Z,67.43
2022-09-28T08:10:44.444Z,67.19
2022-09-28T08:13:28.123Z,67.70
2022-09-28T08:16:07.735Z,67.49
2022-09-28T08:18:55.747Z,67.43
2022-09-28T08:21:47.579Z,67.34
2022-09-28T08:24:24.413Z,67.41
2022-09-28T08:27:01.288Z,67.25
2022-09-28T08:29:37.229Z,66.96
2022-09-28T08:32:39.735Z,67.02
2022-09-28T08:35:48.665Z,67.22
2022-09-28T08:38:36.602Z,67.14
2022-09-28T08:41:40.261Z,66.19
2022-09-28T08:48:09.997Z,66.33
2022-09-28T08:51:07.490Z,66.42
2022-09-28T08:53:57.466Z,66.25
2022-09-28T08:56:41.627Z,66.04
2022-09-28T08:59:19.222Z,65.93
2022-09-28T09:02:03.948Z,65.67
2022-09-28T09:04:39.604Z,65.61
2022-09-28T09:08:02.712Z,65.11
2022-09-28T09:10:51.167Z,65.01
2022-09-28T09:14:05.702Z,65.05
2022-09-28T09:16:51.686Z,65.04
2022-09-28T09:19:36.823Z,64.19
2022-09-28T09:22:24.130Z,64.98
2022-09-28T09:25:09.509Z,64.38
2022-09-28T09:27:59.578Z,63.16
2022-09-28T09:30:40.743Z,63.85
2022-09-28T09:33:54.390Z,63.84
2022-09-28T09:37:01.161Z,63.41
2022-09-28T09:40:07.740Z,63.00
2022-09-28T09:43:45.699Z,62.12
2022-09-28T09:46:40.629Z,62.17
2022-09-28T09:49:40.276Z,61.80
2022-09-28T09:52:21.234Z,61.76
2022-09-28T09:55:01.028Z,61.77
2022-09-28T09:57:46.916Z,61.72
2022-09-28T10:01:01.434Z,61.15
2022-09-28T10:03:56.682Z,61.26
2022-09-28T10:06:35.438Z,61.42
2022-09-28T10:09:12.846Z,61.66
2022-09-28T10:11:50.137Z,61.64
2022-09-28T10:14:26.516Z,61.33
2022-09-28T10:17:09.270Z,60.21
2022-09-28T10:20:01.906Z,59.34
2022-09-28T10:22:58.125Z,59.51
2022-09-28T10:25:31.567Z,59.97
2022-09-28T10:28:07.054Z,60.20
2022-09-28T10:30:44.777Z,59.97
2022-09-28T10:33:32.887Z,60.63
2022-09-28T10:36:11.717Z,60.01
2022-09-28T10:38:51.578Z,59.81
2022-09-28T10:41:50.446Z,59.48
2022-09-28T10:44:27.704Z,59.47
2022-09-28T10:47:08.433Z,59.39
2022-09-28T10:49:47.361Z,59.50
2022-09-28T10:52:37.410Z,59.39
2022-09-28T10:55:23.002Z,59.35
2022-09-28T10:57:56.882Z,59.51
2022-09-28T11:00:39.561Z,59.48
2022-09-28T11:03:27.159Z,59.66
2022-09-28T11:06:07.440Z,60.07
2022-09-28T11:08:44.697Z,61.20
2022-09-28T11:11:24.876Z,61.13
2022-09-28T11:14:05.296Z,60.89
2022-09-28T11:16:41.314Z,60.76
2022-09-28T11:19:31.088Z,60.81
2022-09-28T11:22:20.938Z,58.38
2022-09-28T11:25:14.282Z,57.33
2022-09-28T11:28:00.604Z,56.79
2022-09-28T11:30:40.996Z,56.74
2022-09-28T11:33:38.095Z,57.02
2022-09-28T11:36:47.800Z,56.77
2022-09-28T11:39:31.807Z,56.40
2022-09-28T11:42:20.183Z,55.99
2022-09-28T11:45:00.119Z,55.86
2022-09-28T11:47:45.798Z,55.24
2022-09-28T11:50:26.558Z,55.59
2022-09-28T11:53:15.311Z,57.51
2022-09-28T11:55:53.871Z,56.51
2022-09-28T11:58:30.797Z,54.50
2022-09-28T12:01:15.435Z,54.72
2022-09-28T12:04:22.194Z,55.15
2022-09-28T12:07:01.081Z,55.22
2022-09-28T12:09:41.958Z,54.69
2022-09-28T12:12:26.316Z,54.89
2022-09-28T12:15:18.836Z,55.13
2022-09-28T12:17:55.976Z,55.51
2022-09-28T12:20:32.192Z,55.77
2022-09-28T12:23:09.722Z,56.33
2022-09-28T12:25:48.977Z,56.43
2022-09-28T12:28:32.083Z,56.87
2022-09-28T12:31:16.670Z,57.41
2022-09-28T12:33:53.069Z,57.47
2022-09-28T12:36:42.059Z,57.85
2022-09-28T12:39:46.739Z,57.30
2022-09-28T12:42:39.600Z,57.04
2022-09-28T12:45:30.984Z,57.18
2022-09-28T12:48:28.326Z,57.43
2022-09-28T12:51:11.176Z,57.68
2022-09-28T12:54:01.456Z,57.76
2022-09-28T12:56:43.071Z,58.14
2022-09-28T12:59:26.859Z,58.69
2022-09-28T13:02:38.639Z,58.88
2022-09-28T13:05:38.448Z,58.72
2022-09-28T13:08:19.408Z,58.83
2022-09-28T13:11:07.860Z,58.85
2022-09-28T13:13:52.256Z,59.65
2022-09-28T13:16:35.063Z,60.16
2022-09-28T13:19:17.171Z,60.67
2022-09-28T13:21:59.299Z,61.27
2022-09-28T13:24:44.651Z,61.95
2022-09-28T13:27:25.001Z,62.26
2022-09-28T13:30:02.708Z,61.92
2022-09-28T13:32:39.165Z,61.97
2022-09-28T13:35:19.829Z,59.89
2022-09-28T13:38:44.933Z,59.68
2022-09-28T13:41:21.694Z,60.33
2022-09-28T13:44:30.880Z,59.96
2022-09-28T13:47:21.102Z,59.51
2022-09-28T13:50:05.597Z,58.69
2022-09-28T13:52:52.470Z,58.12
2022-09-28T13:55:35.185Z,57.62
2022-09-28T13:58:16.607Z,56.82
2022-09-28T14:00:55.427Z,56.74
2022-09-28T14:03:44.600Z,55.60
2022-09-28T14:06:29.155Z,55.17
2022-09-28T14:09:25.394Z,54.39
2022-09-28T14:12:01.741Z,55.38
2022-09-28T14:14:49.696Z,55.72
2022-09-28T14:17:53.484Z,55.17
2022-09-28T14:20:31.713Z,55.52
2022-09-28T14:23:40.400Z,55.96
2022-09-28T14:26:43.563Z,55.96
2022-09-28T14:29:31.780Z,56.51
2022-09-28T14:32:37.419Z,56.00
2022-09-28T14:35:21.619Z,56.17
2022-09-28T14:38:23.247Z,55.88
2022-09-28T14:41:13.110Z,56.24
2022-09-28T14:44:09.703Z,56.33
2022-09-28T14:46:45.957Z,56.15
2022-09-28T14:50:01.595Z,56.09
2022-09-28T14:52:46.685Z,56.11
2022-09-28T14:55:25.875Z,56.60
2022-09-28T14:58:01.336Z,56.54
2022-09-28T15:00:37.508Z,55.98
2022-09-28T15:03:14.774Z,55.83
2022-09-28T15:05:49.922Z,56.02
2022-09-28T15:08:24.757Z,56.08
2022-09-28T15:11:02.237Z,56.21
2022-09-28T15:13:35.946Z,56.38
2022-09-28T15:16:12.838Z,56.41
2022-09-28T15:19:16.240Z,56.19
2022-09-28T15:21:51.466Z,56.12
2022-09-28T15:24:35.930Z,56.27
2022-09-28T15:27:19.423Z,56.03
2022-09-28T15:30:03.993Z,56.08
2022-09-28T15:32:37.822Z,56.53
2022-09-28T15:35:22.179Z,56.58
2022-09-28T15:37:56.749Z,56.63
2022-09-28T15:40:35.255Z,56.47
2022-09-28T15:43:27.170Z,56.62
2022-09-28T15:46:07.392Z,56.60
2022-09-28T15:48:52.464Z,56.60
2022-09-28T15:51:28.764Z,56.84
2022-09-28T15:54:06.149Z,56.89
2022-09-28T15:56:55.589Z,57.19
2022-09-28T15:59:33.378Z,57.26
2022-09-28T16:02:16.885Z,57.30
2022-09-28T16:04:54.507Z,57.51
2022-09-28T16:07:35.011Z,57.59
2022-09-28T16:10:35.466Z,57.70
2022-09-28T16:13:24.995Z,57.60
2022-09-28T16:16:02.831Z,58.04
2022-09-28T16:18:41.640Z,58.17
2022-09-28T16:21:53.655Z,58.58
2022-09-28T16:24:31.133Z,58.26
2022-09-28T16:27:07.297Z,58.34
2022-09-28T16:29:45.423Z,58.45
2022-09-28T16:32:42.029Z,58.68
2022-09-28T16:35:30.703Z,58.62
2022-09-28T16:38:14.121Z,59.02
2022-09-28T16:40:50.669Z,58.91
2022-09-28T16:43:27.319Z,59.06
2022-09-28T16:46:07.259Z,58.96
2022-09-28T16:48:49.026Z,58.98
2022-09-28T16:51:24.675Z,59.10
2022-09-28T16:54:19.171Z,59.24
2022-09-28T16:56:52.806Z,59.48
2022-09-28T16:59:26.034Z,59.53
2022-09-28T17:01:59.966Z,59.52
2022-09-28T17:04:33.500Z,59.63
2022-09-28T17:07:07.005Z,59.82
2022-09-28T17:09:40.280Z,59.79
2022-09-28T17:12:21.484Z,59.91
2022-09-28T17:14:55.219Z,59.58
2022-09-28T17:17:31.995Z,59.89
2022-09-28T17:20:20.762Z,59.83
2022-09-28T17:22:55.065Z,59.97
2022-09-28T17:25:29.659Z,60.33
2022-09-28T17:28:05.087Z,60.35
2022-09-28T17:30:39.583Z,60.37
2022-09-28T17:33:13.742Z,60.37
2022-09-28T17:35:48.703Z,60.45
2022-09-28T17:38:23.516Z,60.82
2022-09-28T17:40:58.189Z,60.93
2022-09-28T17:43:32.146Z,61.42
2022-09-28T17:46:11.257Z,61.77
2022-09-28T17:48:47.378Z,61.92
2022-09-28T17:51:20.976Z,62.22
2022-09-28T17:53:56.670Z,62.47
2022-09-28T17:56:32.689Z,62.21
2022-09-28T17:59:08.076Z,62.45
2022-09-28T18:01:42.263Z,63.03
2022-09-28T18:04:39.746Z,63.59
2022-09-28T18:07:10.820Z,64.18
2022-09-28T18:09:44.465Z,64.28
2022-09-28T18:12:18.504Z,64.57
2022-09-28T18:14:52.153Z,64.81
2022-09-28T18:17:29.078Z,65.09
2022-09-28T18:20:02.537Z,65.20
2022-09-28T18:22:36.593Z,65.25
2022-09-28T18:25:11.657Z,65.22
2022-09-28T18:27:45.791Z,65.47
2022-09-28T18:30:19.934Z,65.24
2022-09-28T18:32:54.434Z,65.14
2022-09-28T18:35:28.761Z,65.35
2022-09-28T18:38:02.541Z,65.52
2022-09-28T18:40:37.179Z,65.81
2022-09-28T18:43:11.150Z,65.78
2022-09-28T18:45:45.318Z,66.45
2022-09-28T18:48:19.144Z,66.66
2022-09-28T18:50:53.143Z,66.98
2022-09-28T18:53:26.947Z,67.02
2022-09-28T18:56:07.251Z,66.99
2022-09-28T18:58:42.716Z,66.63
2022-09-28T19:01:30.070Z,66.39
2022-09-28T19:04:05.729Z,66.64
2022-09-28T19:06:45.106Z,66.57
2022-09-28T19:09:19.866Z,66.87
2022-09-28T19:11:53.926Z,67.01
2022-09-28T19:14:28.018Z,67.34
2022-09-28T19:17:01.570Z,67.48
2022-09-28T19:19:36.111Z,67.82
2022-09-28T19:22:10.185Z,68.36
2022-09-28T19:24:44.223Z,68.28
2022-09-28T19:27:18.269Z,68.02
2022-09-28T19:29:51.947Z,68.07
2022-09-28T19:32:25.806Z,68.46
2022-09-28T19:35:04.095Z,68.10
2022-09-28T19:37:39.659Z,68.79
2022-09-28T19:40:14.029Z,68.90
2022-09-28T19:42:47.325Z,69.15
2022-09-28T19:45:21.518Z,69.08
2022-09-28T19:47:59.286Z,69.21
2022-09-28T19:50:33.319Z,69.29
2022-09-28T19:53:07.562Z,69.10
2022-09-28T19:55:41.169Z,69.16
2022-09-28T19:58:14.453Z,69.24
2022-09-28T20:00:48.041Z,68.91
2022-09-28T20:03:21.392Z,69.04
2022-09-28T20:06:00.140Z,68.88
2022-09-28T20:08:33.636Z,68.93
2022-09-28T20:11:06.903Z,68.94
2022-09-28T20:13:40.273Z,68.71
2022-09-28T20:16:15.895Z,68.78
2022-09-28T20:18:51.771Z,68.62
2022-09-28T20:21:26.922Z,68.78
2022-09-28T20:24:00.086Z,68.94
2022-09-28T20:26:38.071Z,68.88
2022-09-28T20:29:12.296Z,68.73
2022-09-28T20:31:46.032Z,68.71
2022-09-28T20:34:19.498Z,68.68
2022-09-28T20:36:53.099Z,68.68
2022-09-28T20:39:29.641Z,68.50
2022-09-28T20:42:03.150Z,68.56
2022-09-28T20:44:36.623Z,68.79
2022-09-28T20:47:10.241Z,68.91
2022-09-28T20:49:44.695Z,69.04
2022-09-28T20:52:21.356Z,69.13
2022-09-28T20:54:54.962Z,69.01
2022-09-28T20:57:28.818Z,69.25
2022-09-28T21:00:02.662Z,69.23
2022-09-28T21:02:36.705Z,69.24
2022-09-28T21:05:11.893Z,69.23
2022-09-28T21:07:45.134Z,69.29
2022-09-28T21:10:18.815Z,69.51
2022-09-28T21:12:53.444Z,69.27
2022-09-28T21:15:30.184Z,69.24
2022-09-28T21:18:03.557Z,69.58
2022-09-28T21:20:36.825Z,69.85
2022-09-28T21:23:10.131Z,69.73
2022-09-28T21:25:45.925Z,69.73
2022-09-28T21:28:19.701Z,69.56
2022-09-28T21:30:54.901Z,69.44
2022-09-28T21:33:28.764Z,69.55
2022-09-28T21:36:06.934Z,69.54
2022-09-28T21:38:40.100Z,69.67
2022-09-28T21:41:14.050Z,69.73
2022-09-28T21:43:47.792Z,69.92
2022-09-28T21:46:21.378Z,69.82
2022-09-28T21:48:56.280Z,69.82
2022-09-28T21:51:30.014Z,69.63
2022-09-28T21:54:06.918Z,69.56
2022-09-28T21:56:40.893Z,69.60
2022-09-28T21:59:14.175Z,69.72
2022-09-28T22:01:48.458Z,69.56
2022-09-28T22:04:21.763Z,69.57
2022-09-28T22:07:05.466Z,69.51
2022-09-28T22:09:38.914Z,69.64
2022-09-28T22:12:12.916Z,69.45
2022-09-28T22:14:46.543Z,69.39
2022-09-28T22:17:19.995Z,69.30
2022-09-28T22:19:53.532Z,69.28
2022-09-28T22:22:29.317Z,69.22
2022-09-28T22:25:02.768Z,69.51
2022-09-28T22:27:46.334Z,69.60
2022-09-28T22:30:19.887Z,69.66
2022-09-28T22:32:53.561Z,69.63
2022-09-28T22:35:29.649Z,69.94
2022-09-28T22:38:04.928Z,69.90
2022-09-28T22:40:38.812Z,70.09
2022-09-28T22:43:12.514Z,69.97
2022-09-28T22:46:09.719Z,70.33
2022-09-28T22:48:43.917Z,70.44
2022-09-28T22:51:20.109Z,70.49
2022-09-28T22:53:53.499Z,70.45
2022-09-28T22:56:26.994Z,70.36
2022-09-28T22:59:00.684Z,70.34
2022-09-28T23:01:53.045Z,70.45
2022-09-28T23:04:29.609Z,70.63
2022-09-28T23:07:03.137Z,70.86
2022-09-28T23:09:37.300Z,71.04
2022-09-28T23:12:10.843Z,71.25
2022-09-28T23:14:43.980Z,71.41
2022-09-28T23:17:17.177Z,71.61
2022-09-28T23:19:53.014Z,71.76
2022-09-28T23:22:26.596Z,71.90
2022-09-28T23:24:59.771Z,71.69
2022-09-28T23:27:33.301Z,71.46
2022-09-28T23:30:07.735Z,71.72
2022-09-28T23:32:41.038Z,71.67
2022-09-28T23:35:14.898Z,71.74
2022-09-28T23:37:53.289Z,71.95
2022-09-28T23:40:26.931Z,72.38
2022-09-28T23:43:01.147Z,72.41
2022-09-28T23:45:34.503Z,72.42
2022-09-28T23:48:12.230Z,72.75
2022-09-28T23:50:46.713Z,72.96
2022-09-28T23:53:23.498Z,72.62
2022-09-28T23:55:58.249Z,72.70
2022-09-28T23:58:31.946Z,72.63
